Adriatic Princess — IVPQ — position and weather

sailwx.info

Track history (hours):
 
Tides and Currents Weather Stations Pressure Air Temp Water Temp Dewpoint Dewpoint Depression Visibility Wind Speed Wind Dir Waves Ship Positions

Adriatic Princess

Last reported at 2015-Jun-30 12:06 UTC. Time now 2015-Jun-30 12:41 UTC.
Position N 40°45' E 013°56'.

Length 32 m; draft 1.8 m.

Type: Passenger vessel. MMSI: 247165700.

Date/timePositionNaut miles runAvg speedWind from/ knotsBaromVisibWave heightAir tempDewpointWater temp
2015-Jun-30 12:06N 40°45' E 013°56'610.5
2015-Jun-30 11:33N 40°46' E 014°04'2 2.1
2015-Jun-30 10:33N 40°46' E 014°01'0 0.3
2015-Jun-30 09:33N 40°46' E 014°01'5 5.4
2015-Jun-30 08:33N 40°49' E 014°07'9 9.4
2015-Jun-30 07:33N 40°45' E 013°56'9 8.5
2015-Jun-30 06:33N 40°49' E 014°06'1 0.9
2015-Jun-30 05:33N 40°49' E 014°07'0 0.0
2015-Jun-29 23:04N 40°49' E 014°07'0 0.0
2015-Jun-29 22:33N 40°49' E 014°07'0 0.0
2015-Jun-29 21:33N 40°49' E 014°07'0 0.0
2015-Jun-29 20:33N 40°49' E 014°07'0 0.0
2015-Jun-29 19:33N 40°49' E 014°07'0 0.0
2015-Jun-29 18:33N 40°49' E 014°07'0 0.0
2015-Jun-29 17:33N 40°49' E 014°07'9 9.3
2015-Jun-29 16:33N 40°45' E 013°56'9 9.2
2015-Jun-29 15:32N 40°49' E 014°07'9 9.4
2015-Jun-29 14:33N 40°45' E 013°56'0 0.0
2015-Jun-29 12:09N 40°45' E 013°56'6 9.5
2015-Jun-29 11:33N 40°46' E 014°03'2 2.0
2015-Jun-29 10:33N 40°46' E 014°01'2 1.5
2015-Jun-29 09:33N 40°46' E 014°03'4 4.4
2015-Jun-29 08:33N 40°49' E 014°07'9 9.3
2015-Jun-29 07:33N 40°45' E 013°56'8 8.1
2015-Jun-29 06:33N 40°48' E 014°06'2 1.6
2015-Jun-29 05:33N 40°49' E 014°07'0 0.0
2015-Jun-29 04:23N 40°49' E 014°07'0 0.0
2015-Jun-29 03:31N 40°49' E 014°07'0 0.0
2015-Jun-28 22:07N 40°49' E 014°07'0 0.0
2015-Jun-28 21:33N 40°49' E 014°07'0 0.0
2015-Jun-28 20:32N 40°49' E 014°07'0 0.0
2015-Jun-28 19:33N 40°49' E 014°07'0 0.0
2015-Jun-28 18:33N 40°49' E 014°07'2 2.3
2015-Jun-28 17:33N 40°47' E 014°06'8 7.7
2015-Jun-28 16:33N 40°45' E 013°56'9 9.0
2015-Jun-28 15:33N 40°49' E 014°07'9 9.2
2015-Jun-28 14:33N 40°45' E 013°56'0 0.0
2015-Jun-28 12:23N 40°45' E 013°56'8 9.4
2015-Jun-28 11:33N 40°47' E 014°06'4 4.4
2015-Jun-28 10:33N 40°46' E 014°00'0 0.3
2015-Jun-28 09:33N 40°46' E 014°01'6 5.5
2015-Jun-28 08:32N 40°49' E 014°07'9 9.6
2015-Jun-28 07:33N 40°45' E 013°56'8 8.1
2015-Jun-28 06:33N 40°48' E 014°06'1 1.4
2015-Jun-28 05:33N 40°49' E 014°07'0 0.0
2015-Jun-28 00:10N 40°49' E 014°07'0 0.0
2015-Jun-27 23:33N 40°49' E 014°07'0 0.0
2015-Jun-27 22:33N 40°49' E 014°07'0 0.0
2015-Jun-27 21:33N 40°49' E 014°07'0 0.0
2015-Jun-27 20:33N 40°49' E 014°07'0 0.0
2015-Jun-27 19:33N 40°49' E 014°07'0 0.0
2015-Jun-27 18:33N 40°49' E 014°07'0 0.0
2015-Jun-27 17:33N 40°49' E 014°07'9 9.3
2015-Jun-27 16:34N 40°45' E 013°56'9 9.1
2015-Jun-27 15:33N 40°49' E 014°07'9 9.3
2015-Jun-27 14:34N 40°45' E 013°56'0 0.0
2015-Jun-27 12:08N 40°45' E 013°56'610.2
2015-Jun-27 11:33N 40°46' E 014°04'2 2.3
2015-Jun-27 10:34N 40°46' E 014°01'2 1.6
2015-Jun-27 09:33N 40°46' E 014°03'4 4.4
2015-Jun-27 08:32N 40°49' E 014°07'9 9.7
2015-Jun-27 07:33N 40°45' E 013°56'9 8.9
2015-Jun-27 06:33N 40°49' E 014°06'1 0.0
2015-Jun-26 18:32N 40°49' E 014°07'0 0.0
2015-Jun-26 17:33N 40°49' E 014°07'0 0.0
2015-Jun-26 16:33N 40°49' E 014°07'0 0.0
2015-Jun-26 15:33N 40°49' E 014°07'0 0.0
2015-Jun-26 14:33N 40°49' E 014°07'0 0.0
2015-Jun-26 13:33N 40°49' E 014°07'0 0.0
2015-Jun-26 12:28N 40°49' E 014°07'0 0.0
2015-Jun-26 11:32N 40°49' E 014°07'0 0.0
2015-Jun-26 10:33N 40°49' E 014°07'0 0.0
2015-Jun-26 09:33N 40°49' E 014°07'0 0.0
2015-Jun-26 08:33N 40°49' E 014°07'0 0.0
2015-Jun-26 07:33N 40°49' E 014°07'0 0.0
2015-Jun-26 06:34N 40°49' E 014°07'0 0.0
2015-Jun-26 05:33N 40°49' E 014°07'0 0.0
2015-Jun-25 22:28N 40°49' E 014°07'0 0.0
2015-Jun-25 21:33N 40°49' E 014°07'0 0.0
2015-Jun-25 20:33N 40°49' E 014°07'0 0.0
2015-Jun-25 19:33N 40°49' E 014°07'0 0.0
2015-Jun-25 18:33N 40°49' E 014°07'0 0.3
2015-Jun-25 17:33N 40°49' E 014°07'9 9.2
2015-Jun-25 16:33N 40°45' E 013°56'9 9.1
2015-Jun-25 15:33N 40°49' E 014°07'9 9.1
2015-Jun-25 14:33N 40°45' E 013°56'0 0.0
2015-Jun-25 13:33N 40°45' E 013°56'0 0.0
2015-Jun-25 12:33N 40°45' E 013°56'6 6.1
2015-Jun-25 11:33N 40°46' E 014°04'2 2.5
2015-Jun-25 10:33N 40°46' E 014°01'0 0.5
2015-Jun-25 09:33N 40°46' E 014°01'5 5.3
2015-Jun-25 08:33N 40°49' E 014°07'9 9.5
2015-Jun-25 07:34N 40°45' E 013°56'8 7.9
2015-Jun-25 06:33N 40°48' E 014°06'2 2.0
2015-Jun-25 05:33N 40°49' E 014°07'0 0.0
2015-Jun-25 04:33N 40°49' E 014°07'0 0.0
2015-Jun-25 03:32N 40°49' E 014°07'0 0.0
2015-Jun-25 02:33N 40°49' E 014°07'0 0.0
2015-Jun-25 01:33N 40°49' E 014°07'0 0.0
2015-Jun-25 00:33N 40°49' E 014°07'0 0.0
2015-Jun-24 23:34N 40°49' E 014°07'0 0.0
2015-Jun-24 22:33N 40°49' E 014°07'0 0.0
2015-Jun-24 21:33N 40°49' E 014°07'0 0.0
2015-Jun-24 20:33N 40°49' E 014°07'0 0.0
2015-Jun-24 19:33N 40°49' E 014°07'0 0.0
2015-Jun-24 18:33N 40°49' E 014°07'0 0.1
2015-Jun-24 17:33N 40°49' E 014°07'9 8.9
2015-Jun-24 16:33N 40°45' E 013°57'8 8.0
2015-Jun-24 15:33N 40°48' E 014°06'8 8.3
2015-Jun-24 14:33N 40°45' E 013°56'0 0.0
2015-Jun-24 13:26N 40°45' E 013°56'0 0.0
2015-Jun-24 12:10N 40°45' E 013°56'6 9.7
2015-Jun-24 11:33N 40°46' E 014°04'3 2.7
2015-Jun-24 10:34N 40°44' E 014°01'2 2.0
2015-Jun-24 09:33N 40°46' E 014°01'5 5.3
2015-Jun-24 08:33N 40°49' E 014°07'9 9.4
2015-Jun-24 07:34N 40°45' E 013°56'8 7.9
2015-Jun-24 06:34N 40°48' E 014°06'2 1.8
2015-Jun-24 05:33N 40°49' E 014°07'0 0.0
2015-Jun-24 00:32N 40°49' E 014°07'0 0.0
2015-Jun-23 23:33N 40°49' E 014°07'0 0.0
2015-Jun-23 22:33N 40°49' E 014°07'0 0.0
2015-Jun-23 21:33N 40°49' E 014°07'0 0.0
2015-Jun-23 20:33N 40°49' E 014°07'0 0.0
2015-Jun-23 19:33N 40°49' E 014°07'0 0.0
2015-Jun-23 19:05N 40°49' E 014°07'0 0.0
2015-Jun-22 19:33N 40°49' E 014°07'0 0.0
2015-Jun-22 18:33N 40°49' E 014°07'0 0.0
2015-Jun-22 17:32N 40°49' E 014°07'9 9.5
2015-Jun-22 16:33N 40°45' E 013°56'9 9.3
2015-Jun-22 15:33N 40°49' E 014°07'9 9.3
2015-Jun-22 14:32N 40°45' E 013°56'0 0.0
2015-Jun-22 13:33N 40°45' E 013°56'0 0.0
2015-Jun-22 12:34N 40°45' E 013°56'6 6.0
2015-Jun-22 11:33N 40°47' E 014°04'2 2.5
2015-Jun-22 10:34N 40°46' E 014°01'1 0.5
2015-Jun-22 09:33N 40°46' E 014°01'5 5.2
2015-Jun-22 08:33N 40°49' E 014°07'9 9.5
2015-Jun-22 07:33N 40°45' E 013°56'8 8.0
2015-Jun-22 06:33N 40°48' E 014°06'2 1.6
2015-Jun-22 05:33N 40°49' E 014°07'0 0.0
2015-Jun-22 04:33N 40°49' E 014°07'0 0.0
2015-Jun-22 03:33N 40°49' E 014°07'0 0.0
2015-Jun-22 02:33N 40°49' E 014°07'0 0.0
2015-Jun-22 01:32N 40°49' E 014°07'0 0.0
2015-Jun-22 00:33N 40°49' E 014°07'0 0.0
2015-Jun-21 23:33N 40°49' E 014°07'0 0.0
2015-Jun-21 22:33N 40°49' E 014°07'0 0.0
2015-Jun-21 21:34N 40°49' E 014°07'0 0.0
2015-Jun-21 20:33N 40°49' E 014°07'0 0.0
2015-Jun-21 19:33N 40°49' E 014°07'0 0.0
2015-Jun-21 18:33N 40°49' E 014°07'3 2.9
2015-Jun-21 17:33N 40°47' E 014°06'7 6.9
2015-Jun-21 16:33N 40°45' E 013°57'8 7.7
2015-Jun-21 15:33N 40°48' E 014°06'8 8.4
2015-Jun-21 14:33N 40°45' E 013°56'0 0.0
2015-Jun-21 13:34N 40°45' E 013°56'0 0.0
2015-Jun-21 12:34N 40°45' E 013°56'7 7.2
2015-Jun-21 11:33N 40°47' E 014°05'4 3.5
2015-Jun-21 10:34N 40°46' E 014°01'0 0.3
2015-Jun-21 09:34N 40°46' E 014°01'5 4.7
2015-Jun-21 08:33N 40°49' E 014°06'9 8.6
2015-Jun-21 07:33N 40°45' E 013°57'9 8.9
2015-Jun-21 06:33N 40°49' E 014°07'0 0.3
2015-Jun-21 05:32N 40°49' E 014°07'0 0.0
2015-Jun-21 04:33N 40°49' E 014°07'0 0.0
2015-Jun-21 03:33N 40°49' E 014°07'0 0.0
2015-Jun-21 02:32N 40°49' E 014°07'0 0.0
2015-Jun-21 01:33N 40°49' E 014°07'0 0.0
2015-Jun-21 00:32N 40°49' E 014°07'0 0.0
2015-Jun-20 23:28N 40°49' E 014°07'0 0.0
2015-Jun-20 22:33N 40°49' E 014°07'0 0.0
2015-Jun-20 21:33N 40°49' E 014°07'0 0.0
2015-Jun-20 20:33N 40°49' E 014°07'0 0.0
2015-Jun-20 19:33N 40°49' E 014°07'0 0.0
2015-Jun-20 18:33N 40°49' E 014°07'0 0.0
2015-Jun-20 17:33N 40°49' E 014°07'9 9.2
2015-Jun-20 16:32N 40°45' E 013°56'9 9.5
2015-Jun-20 15:33N 40°49' E 014°07'9 9.4
2015-Jun-20 14:33N 40°45' E 013°56'0 0.0
2015-Jun-20 13:33N 40°45' E 013°56'0 0.0
2015-Jun-20 12:33N 40°45' E 013°56'  
Track history (hours):
 
Tides and Currents Weather Stations Pressure Air Temp Water Temp Dewpoint Dewpoint Depression Visibility Wind Speed Wind Dir Waves Ship Positions

Adriatic Princess

Last reported at 2015-Jun-30 12:06 UTC. Time now 2015-Jun-30 12:41 UTC.
Position N 40°45' E 013°56'.

Length 32 m; draft 1.8 m.

Type: Passenger vessel. MMSI: 247165700.

Date/timePositionNaut miles runAvg speedWind from/ knotsBaromVisibWave heightAir tempDewpointWater temp
2015-Jun-30 12:06N 40°45' E 013°56'610.5
2015-Jun-30 11:33N 40°46' E 014°04'2 2.1
2015-Jun-30 10:33N 40°46' E 014°01'0 0.3
2015-Jun-30 09:33N 40°46' E 014°01'5 5.4
2015-Jun-30 08:33N 40°49' E 014°07'9 9.4
2015-Jun-30 07:33N 40°45' E 013°56'9 8.5
2015-Jun-30 06:33N 40°49' E 014°06'1 0.9
2015-Jun-30 05:33N 40°49' E 014°07'0 0.0
2015-Jun-29 23:04N 40°49' E 014°07'0 0.0
2015-Jun-29 22:33N 40°49' E 014°07'0 0.0
2015-Jun-29 21:33N 40°49' E 014°07'0 0.0
2015-Jun-29 20:33N 40°49' E 014°07'0 0.0
2015-Jun-29 19:33N 40°49' E 014°07'0 0.0
2015-Jun-29 18:33N 40°49' E 014°07'0 0.0
2015-Jun-29 17:33N 40°49' E 014°07'9 9.3
2015-Jun-29 16:33N 40°45' E 013°56'9 9.2
2015-Jun-29 15:32N 40°49' E 014°07'9 9.4
2015-Jun-29 14:33N 40°45' E 013°56'0 0.0
2015-Jun-29 12:09N 40°45' E 013°56'6 9.5
2015-Jun-29 11:33N 40°46' E 014°03'2 2.0
2015-Jun-29 10:33N 40°46' E 014°01'2 1.5
2015-Jun-29 09:33N 40°46' E 014°03'4 4.4
2015-Jun-29 08:33N 40°49' E 014°07'9 9.3
2015-Jun-29 07:33N 40°45' E 013°56'8 8.1
2015-Jun-29 06:33N 40°48' E 014°06'2 1.6
2015-Jun-29 05:33N 40°49' E 014°07'0 0.0
2015-Jun-29 04:23N 40°49' E 014°07'0 0.0
2015-Jun-29 03:31N 40°49' E 014°07'0 0.0
2015-Jun-28 22:07N 40°49' E 014°07'0 0.0
2015-Jun-28 21:33N 40°49' E 014°07'0 0.0
2015-Jun-28 20:32N 40°49' E 014°07'0 0.0
2015-Jun-28 19:33N 40°49' E 014°07'0 0.0
2015-Jun-28 18:33N 40°49' E 014°07'2 2.3
2015-Jun-28 17:33N 40°47' E 014°06'8 7.7
2015-Jun-28 16:33N 40°45' E 013°56'9 9.0
2015-Jun-28 15:33N 40°49' E 014°07'9 9.2
2015-Jun-28 14:33N 40°45' E 013°56'0 0.0
2015-Jun-28 12:23N 40°45' E 013°56'8 9.4
2015-Jun-28 11:33N 40°47' E 014°06'4 4.4
2015-Jun-28 10:33N 40°46' E 014°00'0 0.3
2015-Jun-28 09:33N 40°46' E 014°01'6 5.5
2015-Jun-28 08:32N 40°49' E 014°07'9 9.6
2015-Jun-28 07:33N 40°45' E 013°56'8 8.1
2015-Jun-28 06:33N 40°48' E 014°06'1 1.4
2015-Jun-28 05:33N 40°49' E 014°07'0 0.0
2015-Jun-28 00:10N 40°49' E 014°07'0 0.0
2015-Jun-27 23:33N 40°49' E 014°07'0 0.0
2015-Jun-27 22:33N 40°49' E 014°07'0 0.0
2015-Jun-27 21:33N 40°49' E 014°07'0 0.0
2015-Jun-27 20:33N 40°49' E 014°07'0 0.0
2015-Jun-27 19:33N 40°49' E 014°07'0 0.0
2015-Jun-27 18:33N 40°49' E 014°07'0 0.0
2015-Jun-27 17:33N 40°49' E 014°07'9 9.3
2015-Jun-27 16:34N 40°45' E 013°56'9 9.1
2015-Jun-27 15:33N 40°49' E 014°07'9 9.3
2015-Jun-27 14:34N 40°45' E 013°56'0 0.0
2015-Jun-27 12:08N 40°45' E 013°56'610.2
2015-Jun-27 11:33N 40°46' E 014°04'2 2.3
2015-Jun-27 10:34N 40°46' E 014°01'2 1.6
2015-Jun-27 09:33N 40°46' E 014°03'4 4.4
2015-Jun-27 08:32N 40°49' E 014°07'9 9.7
2015-Jun-27 07:33N 40°45' E 013°56'9 8.9
2015-Jun-27 06:33N 40°49' E 014°06'1 0.0
2015-Jun-26 18:32N 40°49' E 014°07'0 0.0
2015-Jun-26 17:33N 40°49' E 014°07'0 0.0
2015-Jun-26 16:33N 40°49' E 014°07'0 0.0
2015-Jun-26 15:33N 40°49' E 014°07'0 0.0
2015-Jun-26 14:33N 40°49' E 014°07'0 0.0
2015-Jun-26 13:33N 40°49' E 014°07'0 0.0
2015-Jun-26 12:28N 40°49' E 014°07'0 0.0
2015-Jun-26 11:32N 40°49' E 014°07'0 0.0
2015-Jun-26 10:33N 40°49' E 014°07'0 0.0
2015-Jun-26 09:33N 40°49' E 014°07'0 0.0
2015-Jun-26 08:33N 40°49' E 014°07'0 0.0
2015-Jun-26 07:33N 40°49' E 014°07'0 0.0
2015-Jun-26 06:34N 40°49' E 014°07'0 0.0
2015-Jun-26 05:33N 40°49' E 014°07'0 0.0
2015-Jun-25 22:28N 40°49' E 014°07'0 0.0
2015-Jun-25 21:33N 40°49' E 014°07'0 0.0
2015-Jun-25 20:33N 40°49' E 014°07'0 0.0
2015-Jun-25 19:33N 40°49' E 014°07'0 0.0
2015-Jun-25 18:33N 40°49' E 014°07'0 0.3
2015-Jun-25 17:33N 40°49' E 014°07'9 9.2
2015-Jun-25 16:33N 40°45' E 013°56'9 9.1
2015-Jun-25 15:33N 40°49' E 014°07'9 9.1
2015-Jun-25 14:33N 40°45' E 013°56'0 0.0
2015-Jun-25 13:33N 40°45' E 013°56'0 0.0
2015-Jun-25 12:33N 40°45' E 013°56'6 6.1
2015-Jun-25 11:33N 40°46' E 014°04'2 2.5
2015-Jun-25 10:33N 40°46' E 014°01'0 0.5
2015-Jun-25 09:33N 40°46' E 014°01'5 5.3
2015-Jun-25 08:33N 40°49' E 014°07'9 9.5
2015-Jun-25 07:34N 40°45' E 013°56'8 7.9
2015-Jun-25 06:33N 40°48' E 014°06'2 2.0
2015-Jun-25 05:33N 40°49' E 014°07'0 0.0
2015-Jun-25 04:33N 40°49' E 014°07'0 0.0
2015-Jun-25 03:32N 40°49' E 014°07'0 0.0
2015-Jun-25 02:33N 40°49' E 014°07'0 0.0
2015-Jun-25 01:33N 40°49' E 014°07'0 0.0
2015-Jun-25 00:33N 40°49' E 014°07'0 0.0
2015-Jun-24 23:34N 40°49' E 014°07'0 0.0
2015-Jun-24 22:33N 40°49' E 014°07'0 0.0
2015-Jun-24 21:33N 40°49' E 014°07'0 0.0
2015-Jun-24 20:33N 40°49' E 014°07'0 0.0
2015-Jun-24 19:33N 40°49' E 014°07'0 0.0
2015-Jun-24 18:33N 40°49' E 014°07'0 0.1
2015-Jun-24 17:33N 40°49' E 014°07'9 8.9
2015-Jun-24 16:33N 40°45' E 013°57'8 8.0
2015-Jun-24 15:33N 40°48' E 014°06'8 8.3
2015-Jun-24 14:33N 40°45' E 013°56'0 0.0
2015-Jun-24 13:26N 40°45' E 013°56'0 0.0
2015-Jun-24 12:10N 40°45' E 013°56'6 9.7
2015-Jun-24 11:33N 40°46' E 014°04'3 2.7
2015-Jun-24 10:34N 40°44' E 014°01'2 2.0
2015-Jun-24 09:33N 40°46' E 014°01'5 5.3
2015-Jun-24 08:33N 40°49' E 014°07'9 9.4
2015-Jun-24 07:34N 40°45' E 013°56'8 7.9
2015-Jun-24 06:34N 40°48' E 014°06'2 1.8
2015-Jun-24 05:33N 40°49' E 014°07'0 0.0
2015-Jun-24 00:32N 40°49' E 014°07'0 0.0
2015-Jun-23 23:33N 40°49' E 014°07'0 0.0
2015-Jun-23 22:33N 40°49' E 014°07'0 0.0
2015-Jun-23 21:33N 40°49' E 014°07'0 0.0
2015-Jun-23 20:33N 40°49' E 014°07'0 0.0
2015-Jun-23 19:33N 40°49' E 014°07'0 0.0
2015-Jun-23 19:05N 40°49' E 014°07'0 0.0
2015-Jun-22 19:33N 40°49' E 014°07'0 0.0
2015-Jun-22 18:33N 40°49' E 014°07'0 0.0
2015-Jun-22 17:32N 40°49' E 014°07'9 9.5
2015-Jun-22 16:33N 40°45' E 013°56'9 9.3
2015-Jun-22 15:33N 40°49' E 014°07'9 9.3
2015-Jun-22 14:32N 40°45' E 013°56'0 0.0
2015-Jun-22 13:33N 40°45' E 013°56'0 0.0
2015-Jun-22 12:34N 40°45' E 013°56'6 6.0
2015-Jun-22 11:33N 40°47' E 014°04'2 2.5
2015-Jun-22 10:34N 40°46' E 014°01'1 0.5
2015-Jun-22 09:33N 40°46' E 014°01'5 5.2
2015-Jun-22 08:33N 40°49' E 014°07'9 9.5
2015-Jun-22 07:33N 40°45' E 013°56'8 8.0
2015-Jun-22 06:33N 40°48' E 014°06'2 1.6
2015-Jun-22 05:33N 40°49' E 014°07'0 0.0
2015-Jun-22 04:33N 40°49' E 014°07'0 0.0
2015-Jun-22 03:33N 40°49' E 014°07'0 0.0
2015-Jun-22 02:33N 40°49' E 014°07'0 0.0
2015-Jun-22 01:32N 40°49' E 014°07'0 0.0
2015-Jun-22 00:33N 40°49' E 014°07'0 0.0
2015-Jun-21 23:33N 40°49' E 014°07'0 0.0
2015-Jun-21 22:33N 40°49' E 014°07'0 0.0
2015-Jun-21 21:34N 40°49' E 014°07'0 0.0
2015-Jun-21 20:33N 40°49' E 014°07'0 0.0
2015-Jun-21 19:33N 40°49' E 014°07'0 0.0
2015-Jun-21 18:33N 40°49' E 014°07'3 2.9
2015-Jun-21 17:33N 40°47' E 014°06'7 6.9
2015-Jun-21 16:33N 40°45' E 013°57'8 7.7
2015-Jun-21 15:33N 40°48' E 014°06'8 8.4
2015-Jun-21 14:33N 40°45' E 013°56'0 0.0
2015-Jun-21 13:34N 40°45' E 013°56'0 0.0
2015-Jun-21 12:34N 40°45' E 013°56'7 7.2
2015-Jun-21 11:33N 40°47' E 014°05'4 3.5
2015-Jun-21 10:34N 40°46' E 014°01'0 0.3
2015-Jun-21 09:34N 40°46' E 014°01'5 4.7
2015-Jun-21 08:33N 40°49' E 014°06'9 8.6
2015-Jun-21 07:33N 40°45' E 013°57'9 8.9
2015-Jun-21 06:33N 40°49' E 014°07'0 0.3
2015-Jun-21 05:32N 40°49' E 014°07'0 0.0
2015-Jun-21 04:33N 40°49' E 014°07'0 0.0
2015-Jun-21 03:33N 40°49' E 014°07'0 0.0
2015-Jun-21 02:32N 40°49' E 014°07'0 0.0
2015-Jun-21 01:33N 40°49' E 014°07'0 0.0
2015-Jun-21 00:32N 40°49' E 014°07'0 0.0
2015-Jun-20 23:28N 40°49' E 014°07'0 0.0
2015-Jun-20 22:33N 40°49' E 014°07'0 0.0
2015-Jun-20 21:33N 40°49' E 014°07'0 0.0
2015-Jun-20 20:33N 40°49' E 014°07'0 0.0
2015-Jun-20 19:33N 40°49' E 014°07'0 0.0
2015-Jun-20 18:33N 40°49' E 014°07'0 0.0
2015-Jun-20 17:33N 40°49' E 014°07'9 9.2
2015-Jun-20 16:32N 40°45' E 013°56'9 9.5
2015-Jun-20 15:33N 40°49' E 014°07'9 9.4
2015-Jun-20 14:33N 40°45' E 013°56'0 0.0
2015-Jun-20 13:33N 40°45' E 013°56'0 0.0
2015-Jun-20 12:33N 40°45' E 013°56'  

Dump ship's entire track history